sensor_id;sensor_type;location;lat;lon;timestamp;pressure;altitude;pressure_sealevel;temperature;humidity
25510;BME280;13413;52.336;21.200;2023-09-19T00:38:27;99811.98;;;20.44;72.88
25510;BME280;13413;52.336;21.200;2023-09-19T00:41:20;99813.20;;;20.36;73.38
25510;BME280;13413;52.336;21.200;2023-09-19T00:44:12;99811.75;;;20.33;73.59
25510;BME280;13413;52.336;21.200;2023-09-19T00:47:05;99814.25;;;20.30;73.78
25510;BME280;13413;52.336;21.200;2023-09-19T00:49:57;99817.06;;;20.28;73.84
25510;BME280;13413;52.336;21.200;2023-09-19T00:52:53;99815.98;;;20.28;73.79
25510;BME280;13413;52.336;21.200;2023-09-19T00:55:46;99806.13;;;20.24;74.10
25510;BME280;13413;52.336;21.200;2023-09-19T00:58:39;99806.02;;;20.23;73.91
25510;BME280;13413;52.336;21.200;2023-09-19T01:01:32;99802.14;;;20.19;74.51
25510;BME280;13413;52.336;21.200;2023-09-19T01:04:25;99799.06;;;20.19;74.38
25510;BME280;13413;52.336;21.200;2023-09-19T01:07:18;99797.06;;;20.19;74.34
25510;BME280;13413;52.336;21.200;2023-09-19T01:10:12;99789.52;;;20.13;75.03
25510;BME280;13413;52.336;21.200;2023-09-19T02:35:15;99725.54;;;19.67;77.67
25510;BME280;13413;52.336;21.200;2023-09-19T02:38:07;99723.98;;;19.68;77.34
25510;BME280;13413;52.336;21.200;2023-09-19T02:41:00;99723.33;;;19.68;77.68
25510;BME280;13413;52.336;21.200;2023-09-19T02:43:52;99722.38;;;19.65;77.84
25510;BME280;13413;52.336;21.200;2023-09-19T02:46:45;99723.53;;;19.63;77.81
25510;BME280;13413;52.336;21.200;2023-09-19T02:49:37;99717.58;;;19.63;77.86
25510;BME280;13413;52.336;21.200;2023-09-19T02:52:29;99708.62;;;19.62;77.85
25510;BME280;13413;52.336;21.200;2023-09-19T02:55:22;99703.80;;;19.63;77.75
25510;BME280;13413;52.336;21.200;2023-09-19T02:58:14;99701.38;;;19.58;77.97
25510;BME280;13413;52.336;21.200;2023-09-19T03:01:09;99694.56;;;19.56;78.09
25510;BME280;13413;52.336;21.200;2023-09-19T03:04:02;99701.68;;;19.53;78.15
25510;BME280;13413;52.336;21.200;2023-09-19T03:06:55;99692.05;;;19.49;78.21
25510;BME280;13413;52.336;21.200;2023-09-19T03:09:47;99689.95;;;19.49;78.18
25510;BME280;13413;52.336;21.200;2023-09-19T03:12:40;99696.13;;;19.48;78.28
25510;BME280;13413;52.336;21.200;2023-09-19T03:15:33;99694.48;;;19.46;78.48
25510;BME280;13413;52.336;21.200;2023-09-19T03:18:26;99700.91;;;19.45;78.40
25510;BME280;13413;52.336;21.200;2023-09-19T03:21:18;99699.14;;;19.39;78.81
25510;BME280;13413;52.336;21.200;2023-09-19T03:24:11;99690.31;;;19.38;78.72
25510;BME280;13413;52.336;21.200;2023-09-19T03:27:04;99683.61;;;19.35;78.89
25510;BME280;13413;52.336;21.200;2023-09-19T03:29:57;99679.08;;;19.37;78.66
25510;BME280;13413;52.336;21.200;2023-09-19T03:32:50;99676.20;;;19.37;78.65
25510;BME280;13413;52.336;21.200;2023-09-19T03:35:42;99673.06;;;19.36;78.73
25510;BME280;13413;52.336;21.200;2023-09-19T03:38:34;99679.36;;;19.36;78.73
25510;BME280;13413;52.336;21.200;2023-09-19T03:41:27;99683.83;;;19.36;78.63
25510;BME280;13413;52.336;21.200;2023-09-19T03:44:19;99676.23;;;19.36;78.83
25510;BME280;13413;52.336;21.200;2023-09-19T03:47:11;99674.69;;;19.36;78.95
25510;BME280;13413;52.336;21.200;2023-09-19T03:50:04;99675.81;;;19.36;79.13
25510;BME280;13413;52.336;21.200;2023-09-19T03:52:57;99669.98;;;19.37;79.28
25510;BME280;13413;52.336;21.200;2023-09-19T03:55:50;99669.23;;;19.41;78.91
25510;BME280;13413;52.336;21.200;2023-09-19T03:58:43;99664.64;;;19.44;78.98
25510;BME280;13413;52.336;21.200;2023-09-19T04:01:36;99666.10;;;19.44;78.96
25510;BME280;13413;52.336;21.200;2023-09-19T04:04:29;99658.14;;;19.43;79.02
25510;BME280;13413;52.336;21.200;2023-09-19T04:07:22;99663.45;;;19.43;78.97
25510;BME280;13413;52.336;21.200;2023-09-19T04:10:15;99661.20;;;19.43;78.82
25510;BME280;13413;52.336;21.200;2023-09-19T04:13:07;99659.69;;;19.42;78.64
25510;BME280;13413;52.336;21.200;2023-09-19T04:15:59;99663.75;;;19.41;78.80
25510;BME280;13413;52.336;21.200;2023-09-19T04:18:51;99662.14;;;19.36;78.98
25510;BME280;13413;52.336;21.200;2023-09-19T04:21:42;99656.75;;;19.34;79.06
25510;BME280;13413;52.336;21.200;2023-09-19T06:27:27;99623.17;;;20.82;76.01
25510;BME280;13413;52.336;21.200;2023-09-19T06:30:21;99642.62;;;20.87;75.76
25510;BME280;13413;52.336;21.200;2023-09-19T06:33:15;99653.26;;;20.90;75.53
25510;BME280;13413;52.336;21.200;2023-09-19T06:36:09;99655.23;;;20.94;75.36
25510;BME280;13413;52.336;21.200;2023-09-19T06:39:03;99649.64;;;20.98;75.21
25510;BME280;13413;52.336;21.200;2023-09-19T06:41:57;99652.80;;;21.02;75.09
25510;BME280;13413;52.336;21.200;2023-09-19T06:44:50;99655.05;;;21.07;75.19
25510;BME280;13413;52.336;21.200;2023-09-19T06:47:45;99651.27;;;21.13;74.86
25510;BME280;13413;52.336;21.200;2023-09-19T06:50:39;99650.25;;;21.21;74.88
25510;BME280;13413;52.336;21.200;2023-09-19T06:53:32;99647.55;;;21.31;74.72
25510;BME280;13413;52.336;21.200;2023-09-19T06:56:27;99648.18;;;21.42;74.51
25510;BME280;13413;52.336;21.200;2023-09-19T06:59:20;99650.27;;;21.52;74.48
25510;BME280;13413;52.336;21.200;2023-09-19T07:02:15;99652.19;;;21.61;73.71
25510;BME280;13413;52.336;21.200;2023-09-19T07:05:09;99654.98;;;21.58;73.09
25510;BME280;13413;52.336;21.200;2023-09-19T07:08:03;99654.81;;;21.54;72.85
25510;BME280;13413;52.336;21.200;2023-09-19T07:10:57;99654.58;;;21.61;72.99
25510;BME280;13413;52.336;21.200;2023-09-19T07:13:50;99650.01;;;21.67;72.69
25510;BME280;13413;52.336;21.200;2023-09-19T07:16:45;99652.06;;;21.70;72.40
25510;BME280;13413;52.336;21.200;2023-09-19T07:19:38;99660.95;;;21.80;72.18
25510;BME280;13413;52.336;21.200;2023-09-19T07:22:32;99661.92;;;21.81;72.00
25510;BME280;13413;52.336;21.200;2023-09-19T07:25:26;99665.77;;;21.94;72.02
25510;BME280;13413;52.336;21.200;2023-09-19T07:28:20;99668.93;;;22.06;72.23
25510;BME280;13413;52.336;21.200;2023-09-19T07:31:14;99667.86;;;22.15;71.08
25510;BME280;13413;52.336;21.200;2023-09-19T07:34:08;99673.82;;;22.21;70.56
25510;BME280;13413;52.336;21.200;2023-09-19T07:37:02;99672.25;;;22.31;70.79
25510;BME280;13413;52.336;21.200;2023-09-19T07:39:56;99673.19;;;22.39;70.35
25510;BME280;13413;52.336;21.200;2023-09-19T07:42:50;99674.81;;;22.44;70.55
25510;BME280;13413;52.336;21.200;2023-09-19T07:45:44;99675.79;;;22.55;69.92
25510;BME280;13413;52.336;21.200;2023-09-19T07:48:38;99683.84;;;22.54;69.39
25510;BME280;13413;52.336;21.200;2023-09-19T07:51:32;99684.45;;;22.66;69.90
25510;BME280;13413;52.336;21.200;2023-09-19T07:54:26;99696.30;;;22.77;69.41
25510;BME280;13413;52.336;21.200;2023-09-19T07:57:20;99697.11;;;22.83;68.72
25510;BME280;13413;52.336;21.200;2023-09-19T08:00:15;99701.56;;;22.83;68.15
25510;BME280;13413;52.336;21.200;2023-09-19T08:03:09;99699.06;;;22.81;67.97
25510;BME280;13413;52.336;21.200;2023-09-19T08:06:03;99702.46;;;22.82;68.01
25510;BME280;13413;52.336;21.200;2023-09-19T08:08:57;99700.84;;;22.89;67.79
25510;BME280;13413;52.336;21.200;2023-09-19T08:11:51;99702.56;;;23.01;67.49
25510;BME280;13413;52.336;21.200;2023-09-19T08:14:45;99703.73;;;23.07;67.32
25510;BME280;13413;52.336;21.200;2023-09-19T08:17:39;99708.27;;;23.15;67.36
25510;BME280;13413;52.336;21.200;2023-09-19T08:20:33;99712.48;;;23.19;66.81
25510;BME280;13413;52.336;21.200;2023-09-19T08:23:26;99718.95;;;23.13;67.05
25510;BME280;13413;52.336;21.200;2023-09-19T08:26:20;99715.86;;;23.11;66.88
25510;BME280;13413;52.336;21.200;2023-09-19T08:29:14;99717.59;;;23.09;66.82
25510;BME280;13413;52.336;21.200;2023-09-19T08:32:08;99714.98;;;23.15;66.89
25510;BME280;13413;52.336;21.200;2023-09-19T08:35:02;99714.30;;;23.30;67.12
25510;BME280;13413;52.336;21.200;2023-09-19T08:37:54;99712.55;;;23.44;66.62
25510;BME280;13413;52.336;21.200;2023-09-19T10:40:57;99813.69;;;21.49;75.35
25510;BME280;13413;52.336;21.200;2023-09-19T10:47:13;99814.00;;;21.31;76.09
25510;BME280;13413;52.336;21.200;2023-09-19T10:50:09;99818.13;;;21.36;76.43
25510;BME280;13413;52.336;21.200;2023-09-19T13:18:01;99867.11;;;21.77;80.41
25510;BME280;13413;52.336;21.200;2023-09-19T13:21:08;99863.50;;;21.79;80.53
25510;BME280;13413;52.336;21.200;2023-09-19T13:24:19;99862.50;;;21.83;80.46
25510;BME280;13413;52.336;21.200;2023-09-19T13:27:13;99866.85;;;21.82;80.48
25510;BME280;13413;52.336;21.200;2023-09-19T13:30:10;99864.24;;;21.78;80.58
25510;BME280;13413;52.336;21.200;2023-09-19T13:33:08;99869.46;;;21.75;80.54
25510;BME280;13413;52.336;21.200;2023-09-19T13:36:03;99869.42;;;21.77;80.91
25510;BME280;13413;52.336;21.200;2023-09-19T13:38:56;99866.05;;;21.74;80.68
25510;BME280;13413;52.336;21.200;2023-09-19T13:41:51;99870.93;;;21.76;80.66
25510;BME280;13413;52.336;21.200;2023-09-19T13:44:45;99870.55;;;21.75;80.99
25510;BME280;13413;52.336;21.200;2023-09-19T13:47:39;99872.70;;;21.74;81.05
25510;BME280;13413;52.336;21.200;2023-09-19T13:50:33;99871.88;;;21.73;81.36
25510;BME280;13413;52.336;21.200;2023-09-19T13:53:26;99874.48;;;21.73;81.16
25510;BME280;13413;52.336;21.200;2023-09-19T13:56:20;99873.29;;;21.72;81.19
25510;BME280;13413;52.336;21.200;2023-09-19T13:59:14;99872.70;;;21.74;81.14
25510;BME280;13413;52.336;21.200;2023-09-19T14:02:07;99873.94;;;21.75;81.19
25510;BME280;13413;52.336;21.200;2023-09-19T14:05:02;99875.38;;;21.71;81.35
25510;BME280;13413;52.336;21.200;2023-09-19T14:07:55;99876.16;;;21.66;81.35
25510;BME280;13413;52.336;21.200;2023-09-19T14:10:50;99874.45;;;21.69;81.45
25510;BME280;13413;52.336;21.200;2023-09-19T14:13:44;99876.84;;;21.72;81.64
25510;BME280;13413;52.336;21.200;2023-09-19T14:16:38;99879.77;;;21.73;81.80
25510;BME280;13413;52.336;21.200;2023-09-19T14:19:31;99884.30;;;21.72;81.62
25510;BME280;13413;52.336;21.200;2023-09-19T14:22:26;99880.95;;;21.73;81.65
25510;BME280;13413;52.336;21.200;2023-09-19T14:25:20;99882.09;;;21.74;81.87
25510;BME280;13413;52.336;21.200;2023-09-19T14:28:14;99878.89;;;21.73;81.92
25510;BME280;13413;52.336;21.200;2023-09-19T14:31:09;99882.26;;;21.74;81.85
25510;BME280;13413;52.336;21.200;2023-09-19T14:34:03;99884.96;;;21.76;82.05
25510;BME280;13413;52.336;21.200;2023-09-19T14:36:57;99887.58;;;21.77;81.98
25510;BME280;13413;52.336;21.200;2023-09-19T14:39:51;99889.50;;;21.77;82.40
25510;BME280;13413;52.336;21.200;2023-09-19T14:42:45;99889.45;;;21.77;82.36
25510;BME280;13413;52.336;21.200;2023-09-19T14:45:39;99888.27;;;21.79;82.12
25510;BME280;13413;52.336;21.200;2023-09-19T14:48:33;99887.67;;;21.76;82.21
25510;BME280;13413;52.336;21.200;2023-09-19T14:51:28;99888.91;;;21.75;82.14
25510;BME280;13413;52.336;21.200;2023-09-19T14:54:23;99886.27;;;21.79;82.28
25510;BME280;13413;52.336;21.200;2023-09-19T14:57:16;99887.85;;;21.79;82.19
25510;BME280;13413;52.336;21.200;2023-09-19T15:00:12;99888.91;;;21.83;82.30
25510;BME280;13413;52.336;21.200;2023-09-19T15:03:07;99890.66;;;21.88;82.22
25510;BME280;13413;52.336;21.200;2023-09-19T15:06:05;99893.07;;;21.96;82.24
25510;BME280;13413;52.336;21.200;2023-09-19T15:08:59;99894.54;;;21.98;81.92
25510;BME280;13413;52.336;21.200;2023-09-19T15:11:53;99891.75;;;21.94;82.07
25510;BME280;13413;52.336;21.200;2023-09-19T15:14:47;99895.55;;;21.96;82.13
25510;BME280;13413;52.336;21.200;2023-09-19T15:17:41;99899.00;;;22.02;82.03
25510;BME280;13413;52.336;21.200;2023-09-19T15:20:35;99901.34;;;22.06;82.00
25510;BME280;13413;52.336;21.200;2023-09-19T15:23:29;99903.27;;;22.04;81.63
25510;BME280;13413;52.336;21.200;2023-09-19T15:26:23;99906.91;;;22.05;81.81
25510;BME280;13413;52.336;21.200;2023-09-19T15:29:17;99907.44;;;22.04;82.12
25510;BME280;13413;52.336;21.200;2023-09-19T15:32:11;99907.34;;;22.05;81.84
25510;BME280;13413;52.336;21.200;2023-09-19T15:35:03;99907.88;;;22.06;81.96
25510;BME280;13413;52.336;21.200;2023-09-19T17:38:13;100010.64;;;21.13;80.28
25510;BME280;13413;52.336;21.200;2023-09-19T17:41:06;100012.49;;;21.11;80.30
25510;BME280;13413;52.336;21.200;2023-09-19T17:43:59;100018.80;;;21.07;80.09
25510;BME280;13413;52.336;21.200;2023-09-19T17:46:52;100024.84;;;21.02;80.35
25510;BME280;13413;52.336;21.200;2023-09-19T17:49:45;100028.33;;;20.97;80.43
25510;BME280;13413;52.336;21.200;2023-09-19T17:52:37;100032.08;;;20.90;80.49
25510;BME280;13413;52.336;21.200;2023-09-19T17:55:29;100038.38;;;20.89;80.60
25510;BME280;13413;52.336;21.200;2023-09-19T17:58:23;100041.20;;;20.90;80.57
25510;BME280;13413;52.336;21.200;2023-09-19T18:01:16;100046.91;;;20.90;80.23
25510;BME280;13413;52.336;21.200;2023-09-19T18:04:15;100048.42;;;20.90;80.24
25510;BME280;13413;52.336;21.200;2023-09-19T18:07:15;100051.98;;;20.90;79.83
25510;BME280;13413;52.336;21.200;2023-09-19T19:21:13;100109.35;;;19.39;81.39
25510;BME280;13413;52.336;21.200;2023-09-19T19:24:07;100115.35;;;19.87;78.99
25510;BME280;13413;52.336;21.200;2023-09-19T19:27:01;100116.55;;;19.85;78.24
25510;BME280;13413;52.336;21.200;2023-09-19T19:29:55;100123.50;;;19.77;77.88
25510;BME280;13413;52.336;21.200;2023-09-19T19:32:49;100122.67;;;19.73;77.52
25510;BME280;13413;52.336;21.200;2023-09-19T19:35:43;100127.21;;;19.68;77.45
25510;BME280;13413;52.336;21.200;2023-09-19T19:38:38;100125.86;;;19.60;77.21
25510;BME280;13413;52.336;21.200;2023-09-19T19:41:35;100129.52;;;19.54;77.31
25510;BME280;13413;52.336;21.200;2023-09-19T19:44:29;100128.09;;;19.47;77.20
25510;BME280;13413;52.336;21.200;2023-09-19T19:47:22;100126.46;;;19.40;77.09
25510;BME280;13413;52.336;21.200;2023-09-19T19:50:16;100126.25;;;19.40;77.41
25510;BME280;13413;52.336;21.200;2023-09-19T19:53:10;100127.84;;;19.37;77.15
25510;BME280;13413;52.336;21.200;2023-09-19T19:56:05;100129.70;;;19.35;77.13
25510;BME280;13413;52.336;21.200;2023-09-19T19:58:58;100131.35;;;19.31;76.86
25510;BME280;13413;52.336;21.200;2023-09-19T20:01:51;100130.35;;;19.20;76.60
25510;BME280;13413;52.336;21.200;2023-09-19T20:04:45;100133.17;;;19.09;76.70
25510;BME280;13413;52.336;21.200;2023-09-19T20:07:39;100129.63;;;19.04;76.68
25510;BME280;13413;52.336;21.200;2023-09-19T20:10:34;100128.09;;;18.95;76.77
25510;BME280;13413;52.336;21.200;2023-09-19T20:13:27;100130.71;;;18.94;76.66
25510;BME280;13413;52.336;21.200;2023-09-19T20:16:22;100136.52;;;18.87;76.47
25510;BME280;13413;52.336;21.200;2023-09-19T20:19:15;100134.98;;;18.76;76.30
25510;BME280;13413;52.336;21.200;2023-09-19T21:43:28;100171.70;;;17.36;75.98
25510;BME280;13413;52.336;21.200;2023-09-19T21:46:22;100172.61;;;17.36;76.04
25510;BME280;13413;52.336;21.200;2023-09-19T21:49:17;100172.02;;;17.38;75.84
25510;BME280;13413;52.336;21.200;2023-09-19T21:52:10;100174.86;;;17.32;75.72
25510;BME280;13413;52.336;21.200;2023-09-19T21:55:05;100175.80;;;17.28;75.66
25510;BME280;13413;52.336;21.200;2023-09-19T21:58:00;100174.10;;;17.23;75.74
25510;BME280;13413;52.336;21.200;2023-09-19T22:00:55;100170.61;;;17.21;75.70
25510;BME280;13413;52.336;21.200;2023-09-19T22:03:48;100172.30;;;17.13;75.47
25510;BME280;13413;52.336;21.200;2023-09-19T22:06:41;100166.20;;;17.09;75.83
25510;BME280;13413;52.336;21.200;2023-09-19T22:09:35;100166.87;;;17.12;75.70
25510;BME280;13413;52.336;21.200;2023-09-19T22:12:37;100169.23;;;17.15;75.63
25510;BME280;13413;52.336;21.200;2023-09-19T22:15:33;100172.12;;;17.12;75.68
25510;BME280;13413;52.336;21.200;2023-09-19T22:18:27;100172.43;;;17.13;75.53
25510;BME280;13413;52.336;21.200;2023-09-19T22:21:21;100174.21;;;17.16;75.42
25510;BME280;13413;52.336;21.200;2023-09-19T22:24:15;100174.73;;;17.10;75.32
25510;BME280;13413;52.336;21.200;2023-09-19T22:27:09;100168.36;;;17.05;75.19
25510;BME280;13413;52.336;21.200;2023-09-19T22:30:08;100169.95;;;17.01;75.39
25510;BME280;13413;52.336;21.200;2023-09-19T22:33:02;100167.52;;;17.01;75.37
25510;BME280;13413;52.336;21.200;2023-09-19T22:35:59;100165.20;;;17.03;75.51
25510;BME280;13413;52.336;21.200;2023-09-19T22:38:53;100167.37;;;17.00;75.16
25510;BME280;13413;52.336;21.200;2023-09-19T22:41:47;100169.71;;;16.93;75.27
25510;BME280;13413;52.336;21.200;2023-09-19T22:44:41;100168.21;;;16.90;75.22
25510;BME280;13413;52.336;21.200;2023-09-19T22:47:41;100169.61;;;16.83;75.10
25510;BME280;13413;52.336;21.200;2023-09-19T22:50:35;100172.52;;;16.66;75.21
25510;BME280;13413;52.336;21.200;2023-09-19T22:53:29;100174.58;;;16.60;75.57
25510;BME280;13413;52.336;21.200;2023-09-19T22:56:23;100174.90;;;16.56;75.55
25510;BME280;13413;52.336;21.200;2023-09-19T22:59:17;100177.27;;;16.52;75.63
25510;BME280;13413;52.336;21.200;2023-09-19T23:02:11;100181.70;;;16.53;75.70
25510;BME280;13413;52.336;21.200;2023-09-19T23:05:05;100185.45;;;16.52;75.84
25510;BME280;13413;52.336;21.200;2023-09-19T23:07:59;100186.52;;;16.53;75.86
25510;BME280;13413;52.336;21.200;2023-09-19T23:10:53;100192.10;;;16.59;75.95
25510;BME280;13413;52.336;21.200;2023-09-19T23:13:47;100190.23;;;16.58;75.33
25510;BME280;13413;52.336;21.200;2023-09-19T23:16:41;100190.90;;;16.50;75.38
25510;BME280;13413;52.336;21.200;2023-09-19T23:19:35;100191.92;;;16.51;75.69
25510;BME280;13413;52.336;21.200;2023-09-19T23:22:28;100198.42;;;16.57;75.66
25510;BME280;13413;52.336;21.200;2023-09-19T23:25:24;100195.53;;;16.55;75.25
25510;BME280;13413;52.336;21.200;2023-09-19T23:28:18;100200.39;;;16.50;75.53
25510;BME280;13413;52.336;21.200;2023-09-19T23:31:12;100208.73;;;16.51;75.24
25510;BME280;13413;52.336;21.200;2023-09-19T23:34:07;100202.50;;;16.47;75.27
25510;BME280;13413;52.336;21.200;2023-09-19T23:37:02;100208.54;;;16.50;75.54
25510;BME280;13413;52.336;21.200;2023-09-19T23:39:56;100203.58;;;16.54;75.33
25510;BME280;13413;52.336;21.200;2023-09-19T23:42:50;100204.94;;;16.51;75.15
25510;BME280;13413;52.336;21.200;2023-09-19T23:45:44;100209.02;;;16.41;75.13
25510;BME280;13413;52.336;21.200;2023-09-19T23:48:38;100214.52;;;16.38;75.34
25510;BME280;13413;52.336;21.200;2023-09-19T23:51:32;100217.61;;;16.37;75.31
25510;BME280;13413;52.336;21.200;2023-09-19T23:54:25;100218.98;;;16.35;75.39
25510;BME280;13413;52.336;21.200;2023-09-19T23:57:18;100216.63;;;16.37;75.26
